createdAt,value
2017-12-26T00:00:24.374Z,3.00
2017-12-26T00:02:50.778Z,3.67
2017-12-26T00:05:17.410Z,3.10
2017-12-26T00:07:45.258Z,2.60
2017-12-26T00:10:12.372Z,2.90
2017-12-26T00:12:39.700Z,3.50
2017-12-26T00:15:07.227Z,2.60
2017-12-26T00:17:33.754Z,3.50
2017-12-26T00:20:00.146Z,3.80
2017-12-26T00:22:26.479Z,3.80
2017-12-26T00:24:52.824Z,4.13
2017-12-26T00:27:19.222Z,4.47
2017-12-26T00:29:45.567Z,4.43
2017-12-26T00:32:11.953Z,5.17
2017-12-26T00:34:38.337Z,5.63
2017-12-26T00:37:04.926Z,4.20
2017-12-26T00:39:31.299Z,4.43
2017-12-26T00:41:57.636Z,5.67
2017-12-26T00:44:24.092Z,4.73
2017-12-26T00:46:50.447Z,5.33
2017-12-26T00:49:17.524Z,3.83
2017-12-26T00:51:43.916Z,4.80
2017-12-26T00:54:10.636Z,4.90
2017-12-26T00:56:37.108Z,4.80
2017-12-26T00:59:03.954Z,4.77
2017-12-26T01:01:31.833Z,4.90
2017-12-26T01:03:58.480Z,4.73
2017-12-26T01:06:24.855Z,5.10
2017-12-26T01:08:51.179Z,5.60
2017-12-26T01:11:17.506Z,5.10
2017-12-26T01:13:43.880Z,5.73
2017-12-26T01:16:10.505Z,5.50
2017-12-26T01:18:36.872Z,4.90
2017-12-26T01:21:04.622Z,5.27
2017-12-26T01:23:31.118Z,5.83
2017-12-26T01:25:57.503Z,6.67
2017-12-26T01:28:24.165Z,5.80
2017-12-26T01:30:50.556Z,5.73
2017-12-26T01:33:17.656Z,5.50
2017-12-26T01:35:43.992Z,5.40
2017-12-26T01:38:10.862Z,5.00
2017-12-26T01:40:37.185Z,5.20
2017-12-26T01:43:05.501Z,4.83
2017-12-26T01:45:31.880Z,6.53
2017-12-26T01:47:58.203Z,5.90
2017-12-26T01:50:24.588Z,5.70
2017-12-26T01:52:50.936Z,6.23
2017-12-26T01:55:18.049Z,6.03
2017-12-26T01:57:44.384Z,6.13
2017-12-26T02:00:10.864Z,5.50
2017-12-26T02:02:37.296Z,5.67
2017-12-26T02:05:05.040Z,5.50
2017-12-26T02:07:31.529Z,5.43
2017-12-26T02:09:58.611Z,5.27
2017-12-26T02:12:25.732Z,5.10
2017-12-26T02:14:52.072Z,7.90
2017-12-26T02:17:18.544Z,6.90
2017-12-26T02:19:45.649Z,6.50
2017-12-26T02:22:12.017Z,6.53
2017-12-26T02:24:38.370Z,5.60
2017-12-26T02:27:05.600Z,6.57
2017-12-26T02:29:32.841Z,6.53
2017-12-26T02:31:59.289Z,5.10
2017-12-26T02:34:25.636Z,6.13
2017-12-26T02:36:51.979Z,7.27
2017-12-26T02:39:18.335Z,5.83
2017-12-26T02:41:44.679Z,6.33
2017-12-26T02:44:11.078Z,5.37
2017-12-26T02:46:37.472Z,6.43
2017-12-26T02:49:04.016Z,6.60
2017-12-26T02:51:30.404Z,6.97
2017-12-26T02:53:57.501Z,6.10
2017-12-26T02:56:23.832Z,6.97
2017-12-26T02:58:50.192Z,7.23
2017-12-26T03:01:16.585Z,6.83
2017-12-26T03:03:43.197Z,5.63
2017-12-26T03:06:09.745Z,7.20
2017-12-26T03:08:36.890Z,6.70
2017-12-26T03:11:03.761Z,7.87
2017-12-26T03:13:30.121Z,6.10
2017-12-26T03:15:56.459Z,8.27
2017-12-26T03:18:22.800Z,7.30
2017-12-26T03:20:49.311Z,6.80
2017-12-26T03:23:15.788Z,8.37
2017-12-26T03:25:42.181Z,7.07
2017-12-26T03:28:09.302Z,7.03
2017-12-26T03:30:35.833Z,7.63
2017-12-26T03:33:02.219Z,6.83
2017-12-26T03:35:28.637Z,7.57
2017-12-26T03:37:55.235Z,6.50
2017-12-26T03:40:21.684Z,5.53
2017-12-26T03:42:48.982Z,6.93
2017-12-26T03:45:15.344Z,5.60
2017-12-26T03:47:41.914Z,5.90
2017-12-26T03:50:08.625Z,6.50
2017-12-26T03:52:35.005Z,4.70
2017-12-26T03:55:01.326Z,5.07
2017-12-26T03:57:27.728Z,5.67
2017-12-26T03:59:54.828Z,5.63
2017-12-26T04:02:21.192Z,4.17
2017-12-26T04:04:48.303Z,4.33
2017-12-26T04:07:14.680Z,4.03
2017-12-26T04:09:41.052Z,4.10
2017-12-26T04:12:08.778Z,5.20
2017-12-26T04:14:35.284Z,4.90
2017-12-26T04:17:02.550Z,4.50
2017-12-26T04:19:28.932Z,4.87
2017-12-26T04:21:55.397Z,3.57
2017-12-26T04:24:23.264Z,4.10
2017-12-26T04:26:49.705Z,4.20
2017-12-26T04:29:16.048Z,4.80
2017-12-26T04:31:42.444Z,5.23
2017-12-26T04:34:10.061Z,4.40
2017-12-26T04:36:36.464Z,4.10
2017-12-26T04:39:03.361Z,4.03
2017-12-26T04:41:29.828Z,3.70
2017-12-26T04:43:56.170Z,3.27
2017-12-26T04:46:22.520Z,2.57
2017-12-26T04:48:48.851Z,2.60
2017-12-26T04:51:15.212Z,2.77
2017-12-26T04:53:41.652Z,3.83
2017-12-26T04:56:09.499Z,3.30
2017-12-26T04:58:35.905Z,3.20
2017-12-26T05:01:02.800Z,3.20
2017-12-26T05:03:29.216Z,3.30
2017-12-26T05:05:56.325Z,2.60
2017-12-26T05:08:24.259Z,3.30
2017-12-26T05:10:50.580Z,2.83
2017-12-26T05:13:17.683Z,3.10
2017-12-26T05:15:44.064Z,2.80
2017-12-26T05:18:10.987Z,3.27
2017-12-26T05:20:37.329Z,3.27
2017-12-26T05:23:04.184Z,3.50
2017-12-26T05:25:30.618Z,2.43
2017-12-26T05:27:56.983Z,3.70
2017-12-26T05:30:23.425Z,3.53
2017-12-26T05:32:49.869Z,2.93
2017-12-26T05:35:16.216Z,2.30
2017-12-26T05:37:42.591Z,3.50
2017-12-26T05:40:10.016Z,3.30
2017-12-26T05:42:36.335Z,3.47
2017-12-26T05:45:03.903Z,2.87
2017-12-26T05:47:30.408Z,3.20
2017-12-26T05:49:56.880Z,2.13
2017-12-26T05:52:24.064Z,3.53
2017-12-26T05:54:50.490Z,3.60
2017-12-26T05:57:17.632Z,2.10
2017-12-26T05:59:43.980Z,2.63
2017-12-26T06:02:10.653Z,2.83
2017-12-26T06:04:37.007Z,3.40
2017-12-26T06:07:04.700Z,2.53
2017-12-26T06:09:31.069Z,2.93
2017-12-26T06:11:58.276Z,2.30
2017-12-26T06:14:24.627Z,3.60
2017-12-26T06:16:50.985Z,3.40
2017-12-26T06:19:17.364Z,3.10
2017-12-26T06:21:43.723Z,2.83
2017-12-26T06:24:10.976Z,2.63
2017-12-26T06:26:37.332Z,2.47
2017-12-26T06:29:04.140Z,4.00
2017-12-26T06:31:31.335Z,2.90
2017-12-26T06:33:58.509Z,2.87
2017-12-26T06:36:24.884Z,4.13
2017-12-26T06:38:51.284Z,3.50
2017-12-26T06:41:17.816Z,2.90
2017-12-26T06:43:44.292Z,2.83
2017-12-26T06:46:11.444Z,1.90
2017-12-26T06:48:37.923Z,2.23
2017-12-26T06:51:04.911Z,2.70
2017-12-26T06:53:31.474Z,1.63
2017-12-26T06:55:58.049Z,1.90
2017-12-26T06:58:25.294Z,2.20
2017-12-26T07:00:52.538Z,2.00
2017-12-26T07:03:19.789Z,2.37
2017-12-26T07:05:46.305Z,2.27
2017-12-26T07:08:13.464Z,1.63
2017-12-26T07:10:40.009Z,2.83
2017-12-26T07:13:07.197Z,2.33
2017-12-26T07:15:34.563Z,2.40
2017-12-26T07:18:01.182Z,3.00
2017-12-26T07:20:34.014Z,2.10
2017-12-26T07:23:00.469Z,2.73
2017-12-26T07:25:28.271Z,2.60
2017-12-26T07:27:55.669Z,2.50
2017-12-26T07:30:22.396Z,2.17
2017-12-26T07:32:49.895Z,1.77
2017-12-26T07:35:16.601Z,2.90
2017-12-26T07:37:44.073Z,2.90
2017-12-26T07:40:11.417Z,2.00
2017-12-26T07:42:38.664Z,1.33
2017-12-26T07:45:06.607Z,1.87
2017-12-26T07:47:33.215Z,2.30
2017-12-26T07:49:59.803Z,2.60
2017-12-26T07:52:26.356Z,1.70
2017-12-26T07:54:53.122Z,2.77
2017-12-26T07:57:19.781Z,2.17
2017-12-26T07:59:46.436Z,2.50
2017-12-26T08:02:13.242Z,2.63
2017-12-26T08:04:39.824Z,1.90
2017-12-26T08:07:06.406Z,2.60
2017-12-26T08:09:32.964Z,1.93
2017-12-26T08:12:00.300Z,2.47
2017-12-26T08:14:27.630Z,2.23
2017-12-26T08:16:54.103Z,2.23
2017-12-26T08:19:20.597Z,1.80
2017-12-26T08:21:48.078Z,1.90
2017-12-26T08:24:14.645Z,2.93
2017-12-26T08:26:41.552Z,2.70
2017-12-26T08:29:08.318Z,2.27
2017-12-26T08:31:35.532Z,1.57
2017-12-26T08:34:02.290Z,1.70
2017-12-26T08:36:28.792Z,2.57
2017-12-26T08:38:55.276Z,2.30
2017-12-26T08:41:21.981Z,1.93
2017-12-26T08:43:48.392Z,2.07
2017-12-26T08:46:14.820Z,2.13
2017-12-26T08:48:41.501Z,1.67
2017-12-26T08:51:08.436Z,1.90
2017-12-26T08:53:35.835Z,1.57
2017-12-26T08:56:02.609Z,1.90
2017-12-26T08:58:29.288Z,1.43
2017-12-26T09:00:55.783Z,1.80
2017-12-26T09:03:22.281Z,1.80
2017-12-26T09:05:49.708Z,1.37
2017-12-26T09:08:16.344Z,1.80
2017-12-26T09:10:43.109Z,1.30
2017-12-26T09:13:09.692Z,1.70
2017-12-26T09:15:36.196Z,1.60
2017-12-26T09:18:03.142Z,1.63
2017-12-26T09:20:29.820Z,1.20
2017-12-26T09:22:56.410Z,1.40
2017-12-26T09:25:22.868Z,0.90
2017-12-26T09:27:50.130Z,1.23
2017-12-26T09:30:16.609Z,1.10
2017-12-26T09:32:43.150Z,1.10
2017-12-26T09:35:09.706Z,1.40
2017-12-26T09:37:36.148Z,1.20
2017-12-26T09:40:03.236Z,1.50
2017-12-26T09:42:29.838Z,0.97
2017-12-26T09:44:56.372Z,1.07
2017-12-26T09:47:23.633Z,1.27
2017-12-26T09:49:50.869Z,0.90
2017-12-26T09:52:17.396Z,1.07
2017-12-26T09:54:45.210Z,1.30
2017-12-26T09:57:12.375Z,1.30
2017-12-26T09:59:39.024Z,1.57
2017-12-26T10:02:06.224Z,0.93
2017-12-26T10:04:33.931Z,0.97
2017-12-26T10:07:00.480Z,1.10
2017-12-26T10:09:27.069Z,1.70
2017-12-26T10:11:57.271Z,2.10
2017-12-26T10:14:23.880Z,1.23
2017-12-26T10:16:51.109Z,1.57
2017-12-26T10:19:17.673Z,1.30
2017-12-26T10:21:44.192Z,1.50
2017-12-26T10:24:10.679Z,1.43
2017-12-26T10:26:37.934Z,1.13
2017-12-26T10:29:05.153Z,1.40
2017-12-26T10:31:31.953Z,1.83
2017-12-26T10:33:58.397Z,2.00
2017-12-26T10:36:25.736Z,1.30
2017-12-26T10:38:52.905Z,1.17
2017-12-26T10:41:20.583Z,1.80
2017-12-26T10:43:47.068Z,1.50
2017-12-26T10:46:13.721Z,1.60
2017-12-26T10:48:40.361Z,1.17
2017-12-26T10:51:09.405Z,1.90
2017-12-26T10:53:36.825Z,1.47
2017-12-26T10:56:04.326Z,1.97
2017-12-26T10:58:31.039Z,1.73
2017-12-26T11:00:57.744Z,1.47
2017-12-26T11:03:24.286Z,1.37
2017-12-26T11:05:50.920Z,1.50
2017-12-26T11:08:17.358Z,2.03
2017-12-26T11:10:43.848Z,1.70
2017-12-26T11:13:10.385Z,1.70
2017-12-26T11:15:36.875Z,1.43
2017-12-26T11:18:06.148Z,1.30
2017-12-26T11:20:32.602Z,1.40
2017-12-26T11:22:59.641Z,1.10
2017-12-26T11:25:26.223Z,2.80
2017-12-26T11:27:52.778Z,2.30
2017-12-26T11:30:19.254Z,2.40
2017-12-26T11:32:45.766Z,2.10
2017-12-26T11:35:12.295Z,2.10
2017-12-26T11:37:39.603Z,2.43
2017-12-26T11:40:06.909Z,2.37
2017-12-26T11:42:34.734Z,2.40
2017-12-26T11:45:01.974Z,1.80
2017-12-26T11:47:28.452Z,1.10
2017-12-26T11:49:54.969Z,2.40
2017-12-26T11:52:22.200Z,2.60
2017-12-26T11:54:48.607Z,2.07
2017-12-26T11:57:15.785Z,2.20
2017-12-26T11:59:42.318Z,1.87
2017-12-26T12:02:09.128Z,2.90
2017-12-26T12:04:35.573Z,3.50
2017-12-26T12:07:02.300Z,1.77
2017-12-26T12:09:28.782Z,1.20
2017-12-26T12:11:55.261Z,2.20
2017-12-26T12:14:21.777Z,2.27
2017-12-26T12:16:49.182Z,2.50
2017-12-26T12:19:15.884Z,1.90
2017-12-26T12:21:42.442Z,1.53
2017-12-26T12:24:09.836Z,1.80
2017-12-26T12:26:37.209Z,1.20
2017-12-26T12:29:04.211Z,2.97
2017-12-26T12:31:31.085Z,1.63
2017-12-26T12:33:58.410Z,1.70
2017-12-26T12:36:24.885Z,2.40
2017-12-26T12:38:51.437Z,2.17
2017-12-26T12:41:17.950Z,1.37
2017-12-26T12:43:44.393Z,1.63
2017-12-26T12:46:10.831Z,1.47
2017-12-26T12:48:37.325Z,1.17
2017-12-26T12:53:39.074Z,1.80
2017-12-26T12:56:06.685Z,1.83
2017-12-26T12:58:33.312Z,1.33
2017-12-26T13:00:59.801Z,1.20
2017-12-26T13:03:26.245Z,1.30
2017-12-26T13:05:52.678Z,2.23
2017-12-26T13:08:20.416Z,1.57
2017-12-26T13:10:47.058Z,1.57
2017-12-26T13:13:13.474Z,1.47
2017-12-26T13:15:39.963Z,2.00
2017-12-26T13:18:06.700Z,1.73
2017-12-26T13:20:36.010Z,1.53
2017-12-26T13:23:04.221Z,1.37
2017-12-26T13:25:30.690Z,1.33
2017-12-26T13:27:57.263Z,1.23
2017-12-26T13:30:23.824Z,1.13
2017-12-26T13:32:51.597Z,1.57
2017-12-26T13:35:18.032Z,1.80
2017-12-26T13:37:44.555Z,1.20
2017-12-26T13:40:11.058Z,2.00
2017-12-26T13:42:37.591Z,1.57
2017-12-26T13:45:06.021Z,1.43
2017-12-26T13:47:32.528Z,1.67
2017-12-26T13:49:59.756Z,1.63
2017-12-26T13:52:26.193Z,1.30
2017-12-26T13:54:52.646Z,1.30
2017-12-26T13:57:19.145Z,1.87
2017-12-26T13:59:46.426Z,2.13
2017-12-26T14:02:13.077Z,1.47
2017-12-26T14:04:39.872Z,2.23
2017-12-26T14:07:07.475Z,1.70
2017-12-26T14:09:34.232Z,1.37
2017-12-26T14:12:00.708Z,2.17
2017-12-26T14:14:27.960Z,1.30
2017-12-26T14:16:55.644Z,1.17
2017-12-26T14:19:22.174Z,1.60
2017-12-26T14:21:49.502Z,1.77
2017-12-26T14:24:15.947Z,1.63
2017-12-26T14:26:43.145Z,2.10
2017-12-26T14:29:09.936Z,2.00
2017-12-26T14:31:36.411Z,2.13
2017-12-26T14:34:03.375Z,1.47
2017-12-26T14:36:29.892Z,1.80
2017-12-26T14:38:57.081Z,1.43
2017-12-26T14:41:23.507Z,1.40
2017-12-26T14:43:50.125Z,1.00
2017-12-26T14:46:19.327Z,1.70
2017-12-26T14:48:46.536Z,1.57
2017-12-26T14:51:13.090Z,2.00
2017-12-26T14:53:39.573Z,1.40
2017-12-26T14:56:06.701Z,1.20
2017-12-26T14:58:33.176Z,1.63
2017-12-26T15:01:01.591Z,1.40
2017-12-26T15:03:28.097Z,2.17
2017-12-26T15:05:54.491Z,1.83
2017-12-26T15:08:20.937Z,1.40
2017-12-26T15:10:47.622Z,0.90
2017-12-26T15:13:14.832Z,1.37
2017-12-26T15:15:41.455Z,1.63
2017-12-26T15:18:07.909Z,1.10
2017-12-26T15:20:34.360Z,0.90
2017-12-26T15:23:00.905Z,1.30
2017-12-26T15:25:27.704Z,1.33
2017-12-26T15:27:54.262Z,0.80
2017-12-26T15:30:21.527Z,1.23
2017-12-26T15:32:47.978Z,1.60
2017-12-26T15:35:14.684Z,1.90
2017-12-26T15:37:41.211Z,1.23
2017-12-26T15:40:08.163Z,1.17
2017-12-26T15:42:34.823Z,1.60
2017-12-26T15:45:02.135Z,1.67
2017-12-26T15:47:29.436Z,1.17
2017-12-26T15:49:55.959Z,1.67
2017-12-26T15:52:22.513Z,1.93
2017-12-26T15:54:49.040Z,1.47
2017-12-26T15:57:15.681Z,3.90
2017-12-26T15:59:42.132Z,2.03
2017-12-26T16:02:08.770Z,2.00
2017-12-26T16:04:35.260Z,4.70
2017-12-26T16:07:01.753Z,1.80
2017-12-26T16:09:28.196Z,3.10
2017-12-26T16:11:54.569Z,3.27
2017-12-26T16:14:20.946Z,2.30
2017-12-26T16:16:47.302Z,2.47
2017-12-26T16:19:15.163Z,3.00
2017-12-26T16:21:41.521Z,6.43
2017-12-26T16:24:08.041Z,3.03
2017-12-26T16:26:35.237Z,2.60
2017-12-26T16:29:02.028Z,2.13
2017-12-26T16:31:28.432Z,5.30
2017-12-26T16:33:54.930Z,2.97
2017-12-26T16:36:21.452Z,4.13
2017-12-26T16:38:48.047Z,3.20
2017-12-26T16:41:14.625Z,1.53
2017-12-26T16:43:41.064Z,1.80
2017-12-26T16:46:08.074Z,1.30
2017-12-26T16:48:34.496Z,2.03
2017-12-26T16:51:01.044Z,1.83
2017-12-26T16:53:27.476Z,1.90
2017-12-26T16:55:53.920Z,2.47
2017-12-26T16:58:20.534Z,1.50
2017-12-26T17:00:48.456Z,3.10
2017-12-26T17:03:14.920Z,3.20
2017-12-26T17:05:42.148Z,1.40
2017-12-26T17:08:08.662Z,1.90
2017-12-26T17:10:35.124Z,1.50
2017-12-26T17:13:01.663Z,1.10
2017-12-26T17:15:28.084Z,1.80
2017-12-26T17:17:54.646Z,2.93
2017-12-26T17:20:21.361Z,1.43
2017-12-26T17:22:47.780Z,1.93
2017-12-26T17:25:14.230Z,1.67
2017-12-26T17:27:40.616Z,1.60
2017-12-26T17:30:07.122Z,2.13
2017-12-26T17:32:33.595Z,1.50
2017-12-26T17:35:00.035Z,2.23
2017-12-26T17:37:26.462Z,1.40
2017-12-26T17:39:52.902Z,1.87
2017-12-26T17:42:19.362Z,1.70
2017-12-26T17:44:45.823Z,2.33
2017-12-26T17:47:12.357Z,1.47
2017-12-26T17:49:38.917Z,1.40
2017-12-26T17:52:05.994Z,1.97
2017-12-26T17:54:32.472Z,1.60
2017-12-26T17:56:58.952Z,2.00
2017-12-26T17:59:25.433Z,1.90
2017-12-26T18:01:52.673Z,2.27
2017-12-26T18:04:19.230Z,1.70
2017-12-26T18:06:45.655Z,1.43
2017-12-26T18:09:12.104Z,1.93
2017-12-26T18:11:38.494Z,2.73
2017-12-26T18:14:05.523Z,1.53
2017-12-26T18:16:31.960Z,2.20
2017-12-26T18:18:58.340Z,2.43
2017-12-26T18:21:25.538Z,2.17
2017-12-26T18:23:51.965Z,2.20
2017-12-26T18:26:18.415Z,2.30
2017-12-26T18:31:16.842Z,1.63
2017-12-26T18:33:43.207Z,2.10
2017-12-26T18:36:09.993Z,1.80
2017-12-26T18:38:37.174Z,2.07
2017-12-26T18:41:03.895Z,2.63
2017-12-26T18:43:31.671Z,1.60
2017-12-26T18:45:58.098Z,1.70
2017-12-26T18:48:25.407Z,3.03
2017-12-26T18:50:51.795Z,1.77
2017-12-26T18:53:18.266Z,2.30
2017-12-26T18:55:44.789Z,2.50
2017-12-26T18:58:11.213Z,3.10
2017-12-26T19:00:37.661Z,1.80
2017-12-26T19:03:04.292Z,3.47
2017-12-26T19:05:30.807Z,2.37
2017-12-26T19:07:58.053Z,2.70
2017-12-26T19:10:24.633Z,2.60
2017-12-26T19:12:51.805Z,2.50
2017-12-26T19:15:18.245Z,1.87
2017-12-26T19:17:45.431Z,3.00
2017-12-26T19:20:11.862Z,2.17
2017-12-26T19:22:38.291Z,2.50
2017-12-26T19:25:05.444Z,1.73
2017-12-26T19:27:32.707Z,2.27
2017-12-26T19:29:59.882Z,2.00
2017-12-26T19:32:27.130Z,2.07
2017-12-26T19:34:54.256Z,1.80
2017-12-26T19:37:20.782Z,1.50
2017-12-26T19:39:47.437Z,2.10
2017-12-26T19:42:13.820Z,2.00
2017-12-26T19:44:40.187Z,2.30
2017-12-26T19:47:07.395Z,2.20
2017-12-26T19:49:34.274Z,2.17
2017-12-26T19:52:00.672Z,2.20
2017-12-26T19:54:27.287Z,2.30
2017-12-26T19:56:54.554Z,2.90
2017-12-26T19:59:21.735Z,2.13
2017-12-26T20:01:48.985Z,2.50
2017-12-26T20:04:15.360Z,2.90
2017-12-26T20:06:42.061Z,2.93
2017-12-26T20:09:09.314Z,3.00
2017-12-26T20:11:35.784Z,2.20
2017-12-26T20:14:03.457Z,2.60
2017-12-26T20:16:29.936Z,3.20
2017-12-26T20:18:56.462Z,1.70
2017-12-26T20:21:23.683Z,2.07
2017-12-26T20:23:50.117Z,2.07
2017-12-26T20:26:16.548Z,1.63
2017-12-26T20:28:48.967Z,1.93
2017-12-26T20:31:16.210Z,2.00
2017-12-26T20:33:42.642Z,1.47
2017-12-26T20:36:09.065Z,1.77
2017-12-26T20:38:35.582Z,2.13
2017-12-26T20:41:02.137Z,1.20
2017-12-26T20:43:29.294Z,1.70
2017-12-26T20:45:56.538Z,1.80
2017-12-26T20:48:22.923Z,2.33
2017-12-26T20:50:49.344Z,2.27
2017-12-26T20:53:16.182Z,2.57
2017-12-26T20:55:42.644Z,2.97
2017-12-26T20:58:09.057Z,5.57
2017-12-26T21:00:35.543Z,5.20
2017-12-26T21:03:03.009Z,4.50
2017-12-26T21:05:29.519Z,3.23
2017-12-26T21:07:55.973Z,3.53
2017-12-26T21:10:23.183Z,2.90
2017-12-26T21:12:49.635Z,2.50
2017-12-26T21:15:16.078Z,1.90
2017-12-26T21:17:42.594Z,2.30
2017-12-26T21:20:09.171Z,2.20
2017-12-26T21:22:35.605Z,2.03
2017-12-26T21:25:02.243Z,1.30
2017-12-26T21:27:29.512Z,2.20
2017-12-26T21:29:56.685Z,2.43
2017-12-26T21:32:23.204Z,2.20
2017-12-26T21:34:50.475Z,2.10
2017-12-26T21:37:16.930Z,2.40
2017-12-26T21:39:44.110Z,2.27
2017-12-26T21:42:11.254Z,2.13
2017-12-26T21:44:38.497Z,1.93
2017-12-26T21:47:04.983Z,2.20
2017-12-26T21:49:31.507Z,2.17
2017-12-26T21:51:58.767Z,2.37
2017-12-26T21:54:26.062Z,2.00
2017-12-26T21:56:52.551Z,2.50
2017-12-26T21:59:19.109Z,2.13
2017-12-26T22:01:46.302Z,1.93
2017-12-26T22:04:12.711Z,2.77
2017-12-26T22:06:39.147Z,2.47
2017-12-26T22:09:05.545Z,1.93
2017-12-26T22:11:32.028Z,2.47
2017-12-26T22:13:58.487Z,2.30
2017-12-26T22:16:24.939Z,1.97
2017-12-26T22:18:51.366Z,2.40
2017-12-26T22:21:17.793Z,3.00
2017-12-26T22:23:44.231Z,1.90
2017-12-26T22:26:10.661Z,2.90
2017-12-26T22:28:37.823Z,2.63
2017-12-26T22:31:04.409Z,1.83
2017-12-26T22:33:30.888Z,1.90
2017-12-26T22:35:57.298Z,2.03
2017-12-26T22:38:23.759Z,2.07
2017-12-26T22:40:50.187Z,2.50
2017-12-26T22:43:16.658Z,1.67
2017-12-26T22:45:43.069Z,1.77
2017-12-26T22:48:09.515Z,2.80
2017-12-26T22:50:36.275Z,2.13
2017-12-26T22:53:02.970Z,2.00
2017-12-26T22:55:29.411Z,1.90
2017-12-26T22:57:56.643Z,2.53
2017-12-26T23:00:23.118Z,2.27
2017-12-26T23:02:49.544Z,2.63
2017-12-26T23:05:15.981Z,1.97
2017-12-26T23:07:42.483Z,1.93
2017-12-26T23:10:08.929Z,2.90
2017-12-26T23:12:36.175Z,1.80
2017-12-26T23:15:08.910Z,2.30
2017-12-26T23:17:41.501Z,2.33
2017-12-26T23:20:14.102Z,2.53
2017-12-26T23:22:40.573Z,3.17
2017-12-26T23:25:13.218Z,1.73
2017-12-26T23:27:45.805Z,2.93
2017-12-26T23:30:18.493Z,1.77
2017-12-26T23:32:51.061Z,2.33
2017-12-26T23:35:23.670Z,2.20
2017-12-26T23:37:56.822Z,2.73
2017-12-26T23:40:29.517Z,2.00
2017-12-26T23:43:02.053Z,2.23
2017-12-26T23:45:34.720Z,1.70
2017-12-26T23:48:07.302Z,2.80
2017-12-26T23:50:39.964Z,1.80
2017-12-26T23:53:12.523Z,2.37
2017-12-26T23:55:45.162Z,2.20
2017-12-26T23:58:17.725Z,1.90
